createdAt,value
2018-08-13T00:00:22.397Z,18.17
2018-08-13T00:02:34.634Z,18.23
2018-08-13T00:04:46.914Z,18.13
2018-08-13T00:06:59.093Z,18.08
2018-08-13T00:09:11.370Z,18.05
2018-08-13T00:11:23.594Z,17.95
2018-08-13T00:13:35.812Z,17.88
2018-08-13T00:15:48.034Z,17.83
2018-08-13T00:18:00.291Z,17.83
2018-08-13T00:20:12.535Z,17.83
2018-08-13T00:22:24.770Z,17.89
2018-08-13T00:24:37.002Z,17.88
2018-08-13T00:26:49.250Z,17.91
2018-08-13T00:29:01.498Z,17.89
2018-08-13T00:31:13.698Z,17.85
2018-08-13T00:33:25.993Z,17.83
2018-08-13T00:35:38.386Z,17.85
2018-08-13T00:37:50.936Z,17.88
2018-08-13T00:40:04.127Z,17.82
2018-08-13T00:42:16.379Z,17.78
2018-08-13T00:44:28.671Z,17.77
2018-08-13T00:46:40.897Z,17.67
2018-08-13T00:48:53.138Z,17.64
2018-08-13T00:51:05.491Z,17.63
2018-08-13T00:53:17.745Z,17.63
2018-08-13T00:55:30.273Z,17.60
2018-08-13T00:57:42.514Z,17.57
2018-08-13T00:59:54.736Z,17.55
2018-08-13T01:02:07.016Z,17.44
2018-08-13T01:04:19.251Z,17.46
2018-08-13T01:06:31.482Z,17.46
2018-08-13T01:08:43.755Z,17.46
2018-08-13T01:10:55.998Z,17.49
2018-08-13T01:13:08.229Z,17.44
2018-08-13T01:15:20.712Z,17.41
2018-08-13T01:17:32.994Z,17.35
2018-08-13T01:19:45.199Z,17.29
2018-08-13T01:21:57.449Z,17.32
2018-08-13T01:24:09.674Z,17.29
2018-08-13T01:26:21.919Z,17.27
2018-08-13T01:28:34.144Z,17.28
2018-08-13T01:30:46.437Z,17.24
2018-08-13T01:32:58.678Z,17.20
2018-08-13T01:35:10.936Z,17.23
2018-08-13T01:37:23.326Z,17.21
2018-08-13T01:39:35.575Z,17.23
2018-08-13T01:41:47.813Z,17.21
2018-08-13T01:44:00.065Z,17.21
2018-08-13T01:46:12.282Z,17.14
2018-08-13T01:48:24.529Z,17.10
2018-08-13T01:50:36.769Z,16.98
2018-08-13T01:52:48.981Z,16.92
2018-08-13T01:55:01.242Z,16.82
2018-08-13T01:57:13.644Z,16.80
2018-08-13T01:59:25.850Z,16.85
2018-08-13T02:01:38.133Z,16.90
2018-08-13T02:03:50.591Z,16.93
2018-08-13T02:06:02.878Z,16.91
2018-08-13T02:08:15.101Z,16.86
2018-08-13T02:10:27.332Z,16.88
2018-08-13T02:12:39.806Z,16.86
2018-08-13T02:14:51.971Z,16.85
2018-08-13T02:17:04.840Z,16.86
2018-08-13T02:19:17.119Z,16.85
2018-08-13T02:21:29.343Z,16.83
2018-08-13T02:23:41.594Z,16.79
2018-08-13T02:25:53.882Z,16.75
2018-08-13T02:28:06.137Z,16.79
2018-08-13T02:30:18.359Z,16.83
2018-08-13T02:32:30.567Z,16.89
2018-08-13T02:34:42.783Z,16.91
2018-08-13T02:36:55.017Z,16.93
2018-08-13T02:39:09.196Z,16.95
2018-08-13T02:41:21.331Z,17.02
2018-08-13T02:43:33.574Z,17.08
2018-08-13T02:45:45.772Z,17.07
2018-08-13T02:47:57.998Z,17.08
2018-08-13T02:50:11.929Z,17.12
2018-08-13T02:52:24.203Z,17.15
2018-08-13T02:54:36.445Z,17.18
2018-08-13T02:56:48.667Z,17.22
2018-08-13T02:59:00.989Z,17.22
2018-08-13T03:01:13.211Z,17.23
2018-08-13T03:03:25.478Z,17.22
2018-08-13T03:05:37.770Z,17.26
2018-08-13T03:07:50.024Z,17.27
2018-08-13T03:10:02.308Z,17.26
2018-08-13T03:12:14.516Z,17.21
2018-08-13T03:14:26.827Z,17.18
2018-08-13T03:16:39.107Z,17.16
2018-08-13T03:18:51.370Z,17.15
2018-08-13T03:21:03.662Z,17.05
2018-08-13T03:23:15.923Z,16.93
2018-08-13T03:25:28.192Z,16.86
2018-08-13T03:27:40.420Z,16.85
2018-08-13T03:29:52.676Z,16.81
2018-08-13T03:32:04.948Z,16.83
2018-08-13T03:34:17.183Z,16.80
2018-08-13T03:36:29.402Z,16.78
2018-08-13T03:38:41.690Z,16.80
2018-08-13T03:40:54.044Z,16.83
2018-08-13T03:43:06.306Z,16.86
2018-08-13T03:45:18.557Z,16.91
2018-08-13T03:47:30.796Z,16.94
2018-08-13T03:49:43.007Z,16.95
2018-08-13T03:51:55.249Z,16.97
2018-08-13T03:54:07.457Z,17.06
2018-08-13T03:56:19.714Z,17.13
2018-08-13T03:58:32.006Z,17.14
2018-08-13T04:00:44.262Z,17.10
2018-08-13T04:02:56.579Z,17.08
2018-08-13T04:05:09.508Z,17.13
2018-08-13T04:07:21.772Z,17.22
2018-08-13T04:09:33.987Z,17.33
2018-08-13T04:11:46.227Z,17.51
2018-08-13T04:13:58.426Z,17.61
2018-08-13T04:16:10.614Z,17.67
2018-08-13T04:18:22.927Z,17.74
2018-08-13T04:20:35.298Z,17.80
2018-08-13T04:22:47.566Z,17.87
2018-08-13T04:24:59.838Z,17.93
2018-08-13T04:27:12.016Z,18.01
2018-08-13T04:29:24.384Z,18.06
2018-08-13T04:31:36.569Z,18.12
2018-08-13T04:33:48.854Z,18.21
2018-08-13T04:36:01.114Z,18.29
2018-08-13T04:38:13.397Z,18.37
2018-08-13T04:40:25.607Z,18.41
2018-08-13T04:42:37.822Z,18.48
2018-08-13T04:44:50.079Z,18.58
2018-08-13T04:47:02.351Z,18.72
2018-08-13T04:49:14.586Z,18.85
2018-08-13T04:51:26.751Z,18.97
2018-08-13T04:53:38.962Z,19.05
2018-08-13T04:55:51.206Z,19.10
2018-08-13T04:58:03.421Z,19.16
2018-08-13T05:00:15.646Z,19.25
2018-08-13T05:02:27.874Z,19.36
2018-08-13T05:04:40.103Z,19.44
2018-08-13T05:06:52.295Z,19.50
2018-08-13T05:09:06.795Z,19.59
2018-08-13T05:11:18.993Z,19.66
2018-08-13T05:13:31.205Z,19.70
2018-08-13T05:15:43.427Z,19.74
2018-08-13T05:17:55.637Z,19.80
2018-08-13T05:20:08.554Z,19.87
2018-08-13T05:22:20.763Z,19.97
2018-08-13T05:24:33.053Z,20.06
2018-08-13T05:26:45.288Z,20.18
2018-08-13T05:28:57.507Z,20.25
2018-08-13T05:31:09.720Z,20.34
2018-08-13T05:33:21.970Z,20.43
2018-08-13T05:35:34.287Z,20.55
2018-08-13T05:37:46.462Z,20.69
2018-08-13T05:39:58.798Z,20.87
2018-08-13T05:42:11.194Z,21.09
2018-08-13T05:44:23.439Z,21.33
2018-08-13T05:46:35.864Z,21.54
2018-08-13T05:48:48.191Z,21.73
2018-08-13T05:51:00.439Z,21.96
2018-08-13T05:53:12.599Z,22.18
2018-08-13T05:55:24.816Z,22.40
2018-08-13T05:57:37.039Z,22.59
2018-08-13T05:59:49.291Z,22.67
2018-08-13T06:02:01.511Z,22.78
2018-08-13T06:04:13.754Z,22.90
2018-08-13T06:06:25.974Z,23.02
2018-08-13T06:08:38.255Z,23.10
2018-08-13T06:10:50.472Z,23.06
2018-08-13T06:13:02.758Z,22.84
2018-08-13T06:15:15.014Z,22.67
2018-08-13T06:17:27.237Z,22.67
2018-08-13T06:19:39.411Z,22.79
2018-08-13T06:21:51.638Z,22.74
2018-08-13T06:24:03.941Z,22.74
2018-08-13T06:26:16.201Z,22.78
2018-08-13T06:28:28.470Z,22.77
2018-08-13T06:30:40.743Z,22.80
2018-08-13T06:32:52.959Z,22.95
2018-08-13T06:35:05.207Z,23.08
2018-08-13T06:37:17.622Z,23.24
2018-08-13T06:39:29.870Z,23.42
2018-08-13T06:41:42.086Z,23.62
2018-08-13T06:43:54.300Z,23.82
2018-08-13T06:46:06.539Z,24.09
2018-08-13T06:48:18.759Z,24.26
2018-08-13T06:50:30.986Z,24.33
2018-08-13T06:52:43.330Z,24.36
2018-08-13T06:54:55.539Z,24.36
2018-08-13T06:57:07.796Z,24.35
2018-08-13T06:59:19.987Z,24.44
2018-08-13T07:01:32.222Z,24.69
2018-08-13T07:03:44.432Z,24.71
2018-08-13T07:05:56.710Z,24.64
2018-08-13T07:08:08.889Z,24.56
2018-08-13T07:10:21.149Z,24.51
2018-08-13T07:12:33.351Z,24.42
2018-08-13T07:14:45.578Z,24.41
2018-08-13T07:16:57.850Z,24.52
2018-08-13T07:19:10.047Z,24.59
2018-08-13T07:21:22.358Z,24.67
2018-08-13T07:23:34.603Z,24.54
2018-08-13T07:25:46.859Z,24.47
2018-08-13T07:27:59.149Z,24.37
2018-08-13T07:30:12.599Z,24.24
2018-08-13T07:32:24.782Z,24.12
2018-08-13T07:34:37.003Z,24.03
2018-08-13T07:36:49.194Z,23.90
2018-08-13T07:39:01.427Z,23.81
2018-08-13T07:41:13.607Z,23.71
2018-08-13T07:43:25.954Z,23.69
2018-08-13T07:45:38.314Z,23.69
2018-08-13T07:47:50.457Z,23.82
2018-08-13T07:50:02.858Z,24.25
2018-08-13T07:52:15.101Z,24.42
2018-08-13T07:54:27.343Z,24.45
2018-08-13T07:56:39.583Z,24.41
2018-08-13T07:58:52.107Z,24.36
2018-08-13T08:01:04.343Z,24.33
2018-08-13T08:03:16.627Z,24.35
2018-08-13T08:05:28.894Z,24.33
2018-08-13T08:07:41.210Z,24.32
2018-08-13T08:09:53.382Z,24.36
2018-08-13T08:12:05.705Z,24.48
2018-08-13T08:14:18.163Z,24.71
2018-08-13T08:16:30.335Z,24.87
2018-08-13T08:18:42.566Z,24.89
2018-08-13T08:20:54.880Z,24.93
2018-08-13T08:23:07.207Z,24.89
2018-08-13T08:25:20.766Z,24.96
2018-08-13T08:27:32.993Z,25.01
2018-08-13T08:29:45.287Z,24.99
2018-08-13T08:31:57.463Z,24.90
2018-08-13T08:34:10.161Z,24.77
2018-08-13T08:36:22.351Z,24.68
2018-08-13T08:38:34.731Z,24.59
2018-08-13T08:40:46.977Z,24.54
2018-08-13T08:42:59.230Z,24.45
2018-08-13T08:45:18.259Z,24.21
2018-08-13T08:47:30.503Z,24.06
2018-08-13T08:49:42.772Z,23.89
2018-08-13T08:51:55.015Z,23.73
2018-08-13T08:54:08.054Z,23.59
2018-08-13T08:56:20.259Z,23.41
2018-08-13T08:58:32.445Z,23.23
2018-08-13T09:00:44.718Z,23.16
2018-08-13T09:02:56.953Z,22.97
2018-08-13T09:05:09.286Z,22.82
2018-08-13T09:07:21.542Z,22.75
2018-08-13T09:09:33.813Z,22.70
2018-08-13T09:11:46.062Z,22.69
2018-08-13T09:13:58.290Z,22.73
2018-08-13T09:16:10.562Z,22.64
2018-08-13T09:18:34.130Z,22.64
2018-08-13T09:20:57.730Z,22.65
2018-08-13T09:23:21.337Z,22.68
2018-08-13T09:25:45.133Z,22.66
2018-08-13T09:28:08.772Z,22.76
2018-08-13T09:30:32.434Z,22.85
2018-08-13T09:32:56.112Z,22.88
2018-08-13T09:35:16.162Z,22.86
2018-08-13T09:37:28.366Z,22.85
2018-08-13T09:39:40.587Z,22.87
2018-08-13T09:41:52.830Z,22.91
2018-08-13T09:44:05.055Z,22.98
2018-08-13T09:46:17.331Z,22.96
2018-08-13T09:48:29.781Z,23.00
2018-08-13T09:50:42.055Z,23.03
2018-08-13T09:52:54.343Z,23.05
2018-08-13T09:55:06.745Z,23.03
2018-08-13T09:57:19.028Z,22.93
2018-08-13T09:59:31.270Z,22.93
2018-08-13T10:01:43.514Z,22.97
2018-08-13T10:03:55.762Z,23.06
2018-08-13T10:06:08.060Z,23.12
2018-08-13T10:08:20.554Z,23.20
2018-08-13T10:10:32.824Z,23.27
2018-08-13T10:12:45.547Z,23.33
2018-08-13T10:14:57.838Z,23.44
2018-08-13T10:17:10.107Z,23.50
2018-08-13T10:19:22.328Z,23.55
2018-08-13T10:21:34.589Z,23.53
2018-08-13T10:23:46.823Z,23.48
2018-08-13T10:25:59.042Z,23.46
2018-08-13T10:28:11.273Z,23.47
2018-08-13T10:30:23.568Z,23.41
2018-08-13T10:32:35.975Z,23.28
2018-08-13T10:34:48.268Z,23.21
2018-08-13T10:37:00.506Z,23.12
2018-08-13T10:39:13.754Z,23.10
2018-08-13T10:41:26.058Z,23.01
2018-08-13T10:43:38.290Z,23.02
2018-08-13T10:45:50.495Z,23.08
2018-08-13T10:48:02.770Z,23.13
2018-08-13T10:50:15.023Z,23.14
2018-08-13T10:52:27.266Z,23.17
2018-08-13T10:54:39.499Z,23.13
2018-08-13T10:56:51.740Z,23.07
2018-08-13T10:59:04.457Z,23.05
2018-08-13T11:01:16.844Z,22.97
2018-08-13T11:03:29.115Z,22.90
2018-08-13T11:05:41.355Z,22.86
2018-08-13T11:07:53.618Z,22.80
2018-08-13T11:10:07.743Z,22.75
2018-08-13T11:12:20.011Z,22.70
2018-08-13T11:14:32.242Z,22.67
2018-08-13T11:16:44.502Z,22.68
2018-08-13T11:18:56.783Z,22.68
2018-08-13T11:21:09.079Z,22.67
2018-08-13T11:23:21.317Z,22.64
2018-08-13T11:25:33.551Z,22.62
2018-08-13T11:27:45.769Z,22.50
2018-08-13T11:29:58.071Z,22.45
2018-08-13T11:32:10.427Z,22.42
2018-08-13T11:34:22.646Z,22.37
2018-08-13T11:36:34.890Z,22.32
2018-08-13T11:38:47.087Z,22.21
2018-08-13T11:40:59.329Z,22.07
2018-08-13T11:43:11.691Z,22.06
2018-08-13T11:45:23.906Z,22.00
2018-08-13T11:47:36.699Z,22.03
2018-08-13T11:49:48.895Z,22.12
2018-08-13T11:52:01.454Z,22.20
2018-08-13T11:54:13.683Z,22.26
2018-08-13T11:56:26.325Z,22.30
2018-08-13T11:58:38.676Z,22.33
2018-08-13T12:00:51.087Z,22.36
2018-08-13T12:03:03.452Z,22.40
2018-08-13T12:05:16.128Z,22.39
2018-08-13T12:07:28.342Z,22.38
2018-08-13T12:09:40.627Z,22.39
2018-08-13T12:11:52.891Z,22.44
2018-08-13T12:14:05.204Z,22.46
2018-08-13T12:16:17.384Z,22.51
2018-08-13T12:18:29.674Z,22.52
2018-08-13T12:20:41.943Z,22.48
2018-08-13T12:22:54.194Z,22.53
2018-08-13T12:25:06.839Z,22.60
2018-08-13T12:27:19.082Z,22.57
2018-08-13T12:29:31.658Z,22.58
2018-08-13T12:31:43.854Z,22.62
2018-08-13T12:33:56.083Z,22.68
2018-08-13T12:36:08.312Z,22.78
2018-08-13T12:38:20.542Z,22.85
2018-08-13T12:40:32.862Z,22.94
2018-08-13T12:42:45.252Z,22.97
2018-08-13T12:44:57.500Z,23.01
2018-08-13T12:47:10.571Z,23.01
2018-08-13T12:49:22.843Z,23.01
2018-08-13T12:51:35.221Z,22.97
2018-08-13T12:53:47.412Z,23.00
2018-08-13T12:55:59.679Z,22.95
2018-08-13T12:58:11.899Z,22.98
2018-08-13T13:00:24.192Z,22.91
2018-08-13T13:02:36.732Z,22.86
2018-08-13T13:04:49.184Z,22.81
2018-08-13T13:07:01.766Z,22.74
2018-08-13T13:09:14.243Z,22.71
2018-08-13T13:11:26.488Z,22.67
2018-08-13T13:13:38.755Z,22.65
2018-08-13T13:15:51.006Z,22.65
2018-08-13T13:18:03.285Z,22.73
2018-08-13T13:20:17.671Z,22.75
2018-08-13T13:22:29.927Z,22.77
2018-08-13T13:24:42.167Z,22.77
2018-08-13T13:26:54.372Z,22.77
2018-08-13T13:29:06.666Z,22.73
2018-08-13T13:31:18.871Z,22.64
2018-08-13T13:33:31.459Z,22.73
2018-08-13T13:35:43.689Z,22.90
2018-08-13T13:37:55.940Z,23.08
2018-08-13T13:40:09.996Z,23.25
2018-08-13T13:42:22.270Z,23.41
2018-08-13T13:44:34.540Z,23.53
2018-08-13T13:46:46.776Z,23.61
2018-08-13T13:48:59.015Z,23.77
2018-08-13T13:51:11.328Z,23.94
2018-08-13T13:53:23.552Z,24.01
2018-08-13T13:55:35.867Z,24.02
2018-08-13T13:57:48.104Z,24.10
2018-08-13T14:00:00.383Z,24.17
2018-08-13T14:02:12.674Z,24.23
2018-08-13T14:04:24.948Z,24.18
2018-08-13T14:06:37.217Z,24.18
2018-08-13T14:08:49.516Z,24.29
2018-08-13T14:11:01.786Z,24.45
2018-08-13T14:13:14.109Z,24.52
2018-08-13T14:15:26.474Z,24.63
2018-08-13T14:17:38.876Z,24.62
2018-08-13T14:19:51.014Z,24.63
2018-08-13T14:22:03.523Z,24.56
2018-08-13T14:24:15.706Z,24.53
2018-08-13T14:26:27.950Z,24.56
2018-08-13T14:28:41.267Z,24.62
2018-08-13T14:30:53.569Z,24.67
2018-08-13T14:33:06.371Z,24.72
2018-08-13T14:35:19.548Z,24.77
2018-08-13T14:37:31.798Z,24.81
2018-08-13T14:39:44.145Z,24.79
2018-08-13T14:41:56.383Z,24.87
2018-08-13T14:44:08.743Z,24.86
2018-08-13T14:46:20.979Z,24.82
2018-08-13T14:48:33.211Z,24.80
2018-08-13T14:50:45.444Z,24.78
2018-08-13T14:52:57.707Z,24.71
2018-08-13T14:55:10.336Z,24.61
2018-08-13T14:57:22.583Z,24.49
2018-08-13T14:59:34.899Z,24.36
2018-08-13T15:01:47.124Z,24.24
2018-08-13T15:03:59.403Z,24.19
2018-08-13T15:06:11.633Z,24.09
2018-08-13T15:08:23.831Z,24.00
2018-08-13T15:10:36.118Z,23.87
2018-08-13T15:12:48.424Z,23.65
2018-08-13T15:15:00.582Z,23.50
2018-08-13T15:17:12.940Z,23.41
2018-08-13T15:19:25.162Z,23.37
2018-08-13T15:21:37.547Z,23.34
2018-08-13T15:23:49.736Z,23.39
2018-08-13T15:26:01.992Z,23.44
2018-08-13T15:28:14.345Z,23.40
2018-08-13T15:30:26.826Z,23.30
2018-08-13T15:32:39.234Z,23.21
2018-08-13T15:34:51.523Z,23.22
2018-08-13T15:37:03.851Z,23.28
2018-08-13T15:39:16.052Z,23.38
2018-08-13T15:41:28.322Z,23.42
2018-08-13T15:43:40.615Z,23.48
2018-08-13T15:45:52.858Z,23.59
2018-08-13T15:48:05.279Z,23.73
2018-08-13T15:50:18.647Z,23.88
2018-08-13T15:52:30.913Z,24.00
2018-08-13T15:54:43.226Z,24.07
2018-08-13T15:56:55.422Z,24.09
2018-08-13T15:59:07.646Z,24.07
2018-08-13T16:01:19.857Z,24.07
2018-08-13T16:03:33.286Z,24.09
2018-08-13T16:05:45.661Z,24.09
2018-08-13T16:07:58.108Z,24.09
2018-08-13T16:10:11.929Z,24.08
2018-08-13T16:12:24.171Z,24.02
2018-08-13T16:14:36.722Z,23.97
2018-08-13T16:16:48.951Z,23.98
2018-08-13T16:19:01.256Z,23.98
2018-08-13T16:21:13.511Z,23.93
2018-08-13T16:23:25.788Z,23.94
2018-08-13T16:25:38.208Z,23.85
2018-08-13T16:27:50.522Z,23.77
2018-08-13T16:30:05.371Z,23.71
2018-08-13T16:32:17.656Z,23.61
2018-08-13T16:34:29.924Z,23.58
2018-08-13T16:36:42.314Z,23.57
2018-08-13T16:38:54.574Z,23.58
2018-08-13T16:41:07.123Z,23.60
2018-08-13T16:43:19.368Z,23.60
2018-08-13T16:45:31.696Z,23.56
2018-08-13T16:47:44.018Z,23.43
2018-08-13T16:49:56.241Z,23.37
2018-08-13T16:52:08.463Z,23.23
2018-08-13T16:54:21.124Z,23.15
2018-08-13T16:56:38.161Z,23.12
2018-08-13T16:58:50.487Z,23.10
2018-08-13T17:01:02.910Z,23.14
2018-08-13T17:03:15.150Z,23.14
2018-08-13T17:05:28.374Z,23.16
2018-08-13T17:07:41.619Z,23.15
2018-08-13T17:09:53.858Z,23.17
2018-08-13T17:12:06.109Z,23.12
2018-08-13T17:14:18.578Z,23.03
2018-08-13T17:16:30.813Z,22.97
2018-08-13T17:18:43.088Z,22.87
2018-08-13T17:20:55.331Z,22.83
2018-08-13T17:23:07.670Z,22.78
2018-08-13T17:25:19.990Z,22.66
2018-08-13T17:27:32.235Z,22.60
2018-08-13T17:29:44.460Z,22.58
2018-08-13T17:31:56.778Z,22.60
2018-08-13T17:34:09.913Z,22.59
2018-08-13T17:36:22.191Z,22.62
2018-08-13T17:41:14.642Z,22.49
2018-08-13T17:43:26.888Z,22.37
2018-08-13T17:45:39.166Z,22.38
2018-08-13T17:47:51.412Z,22.39
2018-08-13T17:50:04.848Z,22.35
2018-08-13T17:52:17.123Z,22.28
2018-08-13T17:54:29.347Z,22.14
2018-08-13T17:56:41.663Z,22.16
2018-08-13T17:58:53.951Z,22.16
2018-08-13T18:01:06.681Z,22.16
2018-08-13T18:03:19.030Z,22.14
2018-08-13T18:05:31.228Z,22.15
2018-08-13T18:07:43.727Z,22.16
2018-08-13T18:09:55.950Z,22.12
2018-08-13T18:12:08.202Z,22.03
2018-08-13T18:14:20.512Z,21.96
2018-08-13T18:16:32.751Z,21.87
2018-08-13T18:18:45.060Z,21.90
2018-08-13T18:20:57.343Z,21.97
2018-08-13T18:23:09.703Z,21.89
2018-08-13T18:25:22.031Z,21.89
2018-08-13T18:27:34.311Z,21.94
2018-08-13T18:29:46.559Z,21.96
2018-08-13T18:31:58.906Z,21.89
2018-08-13T18:34:11.123Z,21.83
2018-08-13T18:36:23.424Z,21.77
2018-08-13T18:38:35.761Z,21.67
2018-08-13T18:40:48.019Z,21.62
2018-08-13T18:43:00.363Z,21.51
2018-08-13T18:45:12.666Z,21.45
2018-08-13T18:47:24.991Z,21.38
2018-08-13T18:49:37.323Z,21.25
2018-08-13T18:51:49.695Z,21.18
2018-08-13T18:54:02.058Z,21.15
2018-08-13T18:56:14.383Z,21.13
2018-08-13T18:58:26.674Z,21.15
2018-08-13T19:00:38.977Z,21.13
2018-08-13T19:02:51.287Z,21.08
2018-08-13T19:05:03.897Z,21.01
2018-08-13T19:07:16.222Z,20.95
2018-08-13T19:09:28.459Z,20.89
2018-08-13T19:11:40.797Z,20.86
2018-08-13T19:13:53.186Z,20.82
2018-08-13T19:16:05.524Z,20.82
2018-08-13T19:18:17.923Z,20.79
2018-08-13T19:20:30.151Z,20.78
2018-08-13T19:22:43.034Z,20.77
2018-08-13T19:24:55.632Z,20.75
2018-08-13T19:27:08.022Z,20.73
2018-08-13T19:29:20.307Z,20.71
2018-08-13T19:31:32.648Z,20.67
2018-08-13T19:33:44.904Z,20.65
2018-08-13T19:35:57.308Z,20.63
2018-08-13T19:38:09.623Z,20.60
2018-08-13T19:40:23.396Z,20.58
2018-08-13T19:42:35.762Z,20.56
2018-08-13T19:44:48.085Z,20.54
2018-08-13T19:47:00.490Z,20.54
2018-08-13T19:49:12.750Z,20.53
2018-08-13T19:51:25.024Z,20.46
2018-08-13T19:53:37.341Z,20.39
2018-08-13T19:55:49.621Z,20.35
2018-08-13T19:58:01.941Z,20.38
2018-08-13T20:00:18.733Z,20.39
2018-08-13T20:02:31.305Z,20.37
2018-08-13T20:04:43.650Z,20.39
2018-08-13T20:06:55.957Z,20.41
2018-08-13T20:09:09.507Z,20.43
2018-08-13T20:11:21.822Z,20.45
2018-08-13T20:13:34.120Z,20.43
2018-08-13T20:15:46.359Z,20.42
2018-08-13T20:17:58.679Z,20.43
2018-08-13T20:20:15.146Z,20.44
2018-08-13T20:22:27.408Z,20.45
2018-08-13T20:24:39.807Z,20.47
2018-08-13T20:26:52.048Z,20.51
2018-08-13T20:29:04.325Z,20.51
2018-08-13T20:31:16.608Z,20.52
2018-08-13T20:33:28.891Z,20.52
2018-08-13T20:35:41.181Z,20.54
2018-08-13T20:37:53.466Z,20.56
2018-08-13T20:40:07.944Z,20.55
2018-08-13T20:42:20.216Z,20.48
2018-08-13T20:44:32.551Z,20.46
2018-08-13T20:46:45.213Z,20.45
2018-08-13T20:48:57.470Z,20.42
2018-08-13T20:51:09.775Z,20.41
2018-08-13T20:53:21.972Z,20.42
2018-08-13T20:55:34.245Z,20.40
2018-08-13T20:57:47.581Z,20.37
2018-08-13T20:59:59.884Z,20.35
2018-08-13T21:02:12.134Z,20.32
2018-08-13T21:04:24.446Z,20.35
2018-08-13T21:06:36.760Z,20.33
2018-08-13T21:08:49.122Z,20.39
2018-08-13T21:11:01.374Z,20.41
2018-08-13T21:13:13.635Z,20.43
2018-08-13T21:15:25.982Z,20.44
2018-08-13T21:17:38.359Z,20.43
2018-08-13T21:19:50.542Z,20.46
2018-08-13T21:22:02.815Z,20.49
2018-08-13T21:24:15.040Z,20.51
2018-08-13T21:26:27.363Z,20.52
2018-08-13T21:28:39.567Z,20.52
2018-08-13T21:30:51.846Z,20.48
2018-08-13T21:33:04.119Z,20.47
2018-08-13T21:35:20.683Z,20.45
2018-08-13T21:37:33.271Z,20.44
2018-08-13T21:39:45.587Z,20.43
2018-08-13T21:41:57.856Z,20.42
2018-08-13T21:44:10.134Z,20.40
2018-08-13T21:46:22.368Z,20.39
2018-08-13T21:48:34.647Z,20.41
2018-08-13T21:50:46.886Z,20.43
2018-08-13T21:52:59.106Z,20.45
2018-08-13T21:55:11.401Z,20.46
2018-08-13T21:57:24.514Z,20.48
2018-08-13T21:59:37.545Z,20.49
2018-08-13T22:01:49.929Z,20.51
2018-08-13T22:04:02.188Z,20.49
2018-08-13T22:06:14.407Z,20.54
2018-08-13T22:08:26.702Z,20.54
2018-08-13T22:10:38.995Z,20.57
2018-08-13T22:12:51.251Z,20.56
2018-08-13T22:15:14.230Z,20.56
2018-08-13T22:17:26.490Z,20.56
2018-08-13T22:19:38.823Z,20.55
2018-08-13T22:21:51.052Z,20.55
2018-08-13T22:24:14.542Z,20.58
2018-08-13T22:26:26.862Z,20.60
2018-08-13T22:28:39.184Z,20.62
2018-08-13T22:30:51.389Z,20.60
2018-08-13T22:33:03.855Z,20.60
2018-08-13T22:35:16.166Z,20.57
2018-08-13T22:37:28.405Z,20.55
2018-08-13T22:39:40.750Z,20.54
2018-08-13T22:41:53.031Z,20.51
2018-08-13T22:44:05.283Z,20.48
2018-08-13T22:46:17.591Z,20.48
2018-08-13T22:48:29.878Z,20.46
2018-08-13T22:50:42.107Z,20.43
2018-08-13T22:52:54.352Z,20.43
2018-08-13T22:55:08.654Z,20.32
2018-08-13T22:57:20.894Z,20.34
2018-08-13T22:59:33.088Z,20.31
2018-08-13T23:01:46.686Z,20.30
2018-08-13T23:03:58.949Z,20.28
2018-08-13T23:06:11.241Z,20.27
2018-08-13T23:08:23.464Z,20.25
2018-08-13T23:10:35.667Z,20.19
2018-08-13T23:12:49.199Z,20.12
2018-08-13T23:15:01.419Z,20.16
2018-08-13T23:17:13.706Z,20.18
2018-08-13T23:19:25.926Z,20.15
2018-08-13T23:21:38.209Z,20.16
2018-08-13T23:23:50.426Z,20.14
2018-08-13T23:26:02.670Z,20.13
2018-08-13T23:28:14.920Z,20.11
2018-08-13T23:30:27.515Z,20.10
2018-08-13T23:32:39.721Z,20.07
2018-08-13T23:34:51.931Z,20.05
2018-08-13T23:37:04.163Z,19.94
2018-08-13T23:39:16.411Z,19.87
2018-08-13T23:41:29.103Z,19.78
2018-08-13T23:43:41.347Z,19.62
2018-08-13T23:45:53.598Z,19.56
2018-08-13T23:48:05.813Z,19.52
2018-08-13T23:50:19.810Z,19.49
2018-08-13T23:52:32.069Z,19.45
2018-08-13T23:54:44.302Z,19.42
2018-08-13T23:56:56.561Z,19.40
2018-08-13T23:59:08.839Z,19.38
